sensor_id;sensor_type;location;lat;lon;timestamp;temperature;humidity
55777;DHT22;54079;44.540;18.784;2022-08-18T00:00:15;20.90;96.50
55777;DHT22;54079;44.540;18.784;2022-08-18T00:02:42;20.90;95.30
55777;DHT22;54079;44.540;18.784;2022-08-18T00:05:10;21.00;96.50
55777;DHT22;54079;44.540;18.784;2022-08-18T00:07:38;20.80;96.90
55777;DHT22;54079;44.540;18.784;2022-08-18T00:10:05;20.80;97.20
55777;DHT22;54079;44.540;18.784;2022-08-18T00:12:38;20.70;97.70
55777;DHT22;54079;44.540;18.784;2022-08-18T00:15:07;20.70;99.30
55777;DHT22;54079;44.540;18.784;2022-08-18T00:17:35;20.70;99.90
55777;DHT22;54079;44.540;18.784;2022-08-18T00:20:03;20.70;99.70
55777;DHT22;54079;44.540;18.784;2022-08-18T00:22:30;20.50;99.50
55777;DHT22;54079;44.540;18.784;2022-08-18T00:24:56;20.40;99.90
55777;DHT22;54079;44.540;18.784;2022-08-18T00:27:26;20.30;99.90
55777;DHT22;54079;44.540;18.784;2022-08-18T00:29:54;20.30;99.90
55777;DHT22;54079;44.540;18.784;2022-08-18T00:32:26;20.40;99.90
55777;DHT22;54079;44.540;18.784;2022-08-18T00:34:53;20.30;99.90
55777;DHT22;54079;44.540;18.784;2022-08-18T00:37:20;20.40;99.90
55777;DHT22;54079;44.540;18.784;2022-08-18T00:39:46;20.40;99.90
55777;DHT22;54079;44.540;18.784;2022-08-18T00:42:24;20.40;99.90
55777;DHT22;54079;44.540;18.784;2022-08-18T00:44:50;20.40;99.90
55777;DHT22;54079;44.540;18.784;2022-08-18T00:47:16;20.40;99.90
55777;DHT22;54079;44.540;18.784;2022-08-18T00:49:43;20.30;99.90
55777;DHT22;54079;44.540;18.784;2022-08-18T00:52:12;20.30;99.90
55777;DHT22;54079;44.540;18.784;2022-08-18T00:54:39;20.30;99.90
55777;DHT22;54079;44.540;18.784;2022-08-18T00:57:08;20.30;99.90
55777;DHT22;54079;44.540;18.784;2022-08-18T00:59:50;20.30;99.90
55777;DHT22;54079;44.540;18.784;2022-08-18T01:02:32;20.30;99.90
55777;DHT22;54079;44.540;18.784;2022-08-18T01:05:12;20.30;99.90
55777;DHT22;54079;44.540;18.784;2022-08-18T01:07:42;20.30;99.90
55777;DHT22;54079;44.540;18.784;2022-08-18T01:10:14;20.30;99.90
55777;DHT22;54079;44.540;18.784;2022-08-18T01:12:47;20.40;99.90
55777;DHT22;54079;44.540;18.784;2022-08-18T01:15:15;20.30;99.90
55777;DHT22;54079;44.540;18.784;2022-08-18T01:17:42;20.40;99.90
55777;DHT22;54079;44.540;18.784;2022-08-18T01:20:54;20.40;99.90
55777;DHT22;54079;44.540;18.784;2022-08-18T01:23:41;20.40;99.90
55777;DHT22;54079;44.540;18.784;2022-08-18T01:26:07;20.40;99.90
55777;DHT22;54079;44.540;18.784;2022-08-18T01:28:40;20.40;99.90
55777;DHT22;54079;44.540;18.784;2022-08-18T01:31:08;20.40;99.90
55777;DHT22;54079;44.540;18.784;2022-08-18T01:33:38;20.40;99.90
55777;DHT22;54079;44.540;18.784;2022-08-18T01:36:18;20.40;99.90
55777;DHT22;54079;44.540;18.784;2022-08-18T01:38:48;20.40;99.90
55777;DHT22;54079;44.540;18.784;2022-08-18T01:41:16;20.40;99.90
55777;DHT22;54079;44.540;18.784;2022-08-18T01:43:42;20.40;99.90
55777;DHT22;54079;44.540;18.784;2022-08-18T01:46:10;20.40;99.90
55777;DHT22;54079;44.540;18.784;2022-08-18T01:48:36;20.40;99.90
55777;DHT22;54079;44.540;18.784;2022-08-18T01:51:05;20.40;99.90
55777;DHT22;54079;44.540;18.784;2022-08-18T01:53:31;20.30;99.90
55777;DHT22;54079;44.540;18.784;2022-08-18T01:55:57;20.30;99.90
55777;DHT22;54079;44.540;18.784;2022-08-18T01:58:24;20.30;99.90
55777;DHT22;54079;44.540;18.784;2022-08-18T02:00:56;20.40;99.90
55777;DHT22;54079;44.540;18.784;2022-08-18T02:03:24;20.40;99.90
55777;DHT22;54079;44.540;18.784;2022-08-18T02:06:01;20.40;99.90
55777;DHT22;54079;44.540;18.784;2022-08-18T02:08:28;20.40;99.90
55777;DHT22;54079;44.540;18.784;2022-08-18T02:10:54;20.40;99.90
55777;DHT22;54079;44.540;18.784;2022-08-18T02:13:23;20.40;99.90
55777;DHT22;54079;44.540;18.784;2022-08-18T02:15:49;20.30;99.90
55777;DHT22;54079;44.540;18.784;2022-08-18T02:18:17;20.40;99.90
55777;DHT22;54079;44.540;18.784;2022-08-18T02:20:44;20.30;99.90
55777;DHT22;54079;44.540;18.784;2022-08-18T02:23:10;20.30;99.90
55777;DHT22;54079;44.540;18.784;2022-08-18T02:25:37;20.20;99.90
55777;DHT22;54079;44.540;18.784;2022-08-18T02:28:04;20.20;99.90
55777;DHT22;54079;44.540;18.784;2022-08-18T02:30:30;20.30;99.90
55777;DHT22;54079;44.540;18.784;2022-08-18T02:32:59;20.20;99.90
55777;DHT22;54079;44.540;18.784;2022-08-18T02:35:26;20.30;99.90
55777;DHT22;54079;44.540;18.784;2022-08-18T02:37:52;20.30;99.90
55777;DHT22;54079;44.540;18.784;2022-08-18T02:40:18;20.30;99.90
55777;DHT22;54079;44.540;18.784;2022-08-18T02:42:45;20.30;99.90
55777;DHT22;54079;44.540;18.784;2022-08-18T02:45:12;20.30;99.90
55777;DHT22;54079;44.540;18.784;2022-08-18T02:47:38;20.30;99.90
55777;DHT22;54079;44.540;18.784;2022-08-18T02:50:06;20.30;99.90
55777;DHT22;54079;44.540;18.784;2022-08-18T02:52:34;20.40;99.90
55777;DHT22;54079;44.540;18.784;2022-08-18T02:55:00;20.40;99.90
55777;DHT22;54079;44.540;18.784;2022-08-18T02:57:27;20.40;99.90
55777;DHT22;54079;44.540;18.784;2022-08-18T02:59:53;20.40;99.90
55777;DHT22;54079;44.540;18.784;2022-08-18T03:02:20;20.40;99.90
55777;DHT22;54079;44.540;18.784;2022-08-18T03:04:47;20.40;99.90
55777;DHT22;54079;44.540;18.784;2022-08-18T03:07:13;20.40;99.90
55777;DHT22;54079;44.540;18.784;2022-08-18T03:09:40;20.40;99.90
55777;DHT22;54079;44.540;18.784;2022-08-18T03:12:08;20.40;99.90
55777;DHT22;54079;44.540;18.784;2022-08-18T03:14:35;20.30;99.90
55777;DHT22;54079;44.540;18.784;2022-08-18T03:17:04;20.40;99.90
55777;DHT22;54079;44.540;18.784;2022-08-18T03:19:31;20.40;99.90
55777;DHT22;54079;44.540;18.784;2022-08-18T03:21:58;20.40;99.90
55777;DHT22;54079;44.540;18.784;2022-08-18T03:24:26;20.40;99.90
55777;DHT22;54079;44.540;18.784;2022-08-18T03:26:54;20.40;99.90
55777;DHT22;54079;44.540;18.784;2022-08-18T03:29:22;20.40;99.90
55777;DHT22;54079;44.540;18.784;2022-08-18T03:31:49;20.40;99.90
55777;DHT22;54079;44.540;18.784;2022-08-18T03:34:17;20.30;99.90
55777;DHT22;54079;44.540;18.784;2022-08-18T03:36:48;20.30;99.90
55777;DHT22;54079;44.540;18.784;2022-08-18T03:39:16;20.30;99.90
55777;DHT22;54079;44.540;18.784;2022-08-18T03:41:43;20.30;99.90
55777;DHT22;54079;44.540;18.784;2022-08-18T03:44:14;20.30;99.90
55777;DHT22;54079;44.540;18.784;2022-08-18T03:46:41;20.40;99.90
55777;DHT22;54079;44.540;18.784;2022-08-18T03:49:08;20.40;99.90
55777;DHT22;54079;44.540;18.784;2022-08-18T03:51:34;20.40;99.90
55777;DHT22;54079;44.540;18.784;2022-08-18T03:54:02;20.30;99.90
55777;DHT22;54079;44.540;18.784;2022-08-18T03:56:34;20.30;99.90
55777;DHT22;54079;44.540;18.784;2022-08-18T03:59:10;20.40;99.90
55777;DHT22;54079;44.540;18.784;2022-08-18T04:01:39;20.50;99.90
55777;DHT22;54079;44.540;18.784;2022-08-18T04:04:07;20.50;99.90
55777;DHT22;54079;44.540;18.784;2022-08-18T04:06:37;20.40;99.90
55777;DHT22;54079;44.540;18.784;2022-08-18T04:09:07;20.40;99.90
55777;DHT22;54079;44.540;18.784;2022-08-18T04:11:35;20.50;99.90
55777;DHT22;54079;44.540;18.784;2022-08-18T04:14:03;20.50;99.90
55777;DHT22;54079;44.540;18.784;2022-08-18T04:16:30;20.60;99.90
55777;DHT22;54079;44.540;18.784;2022-08-18T04:18:57;20.70;99.90
55777;DHT22;54079;44.540;18.784;2022-08-18T04:21:35;20.80;99.90
55777;DHT22;54079;44.540;18.784;2022-08-18T04:24:02;20.90;99.90
55777;DHT22;54079;44.540;18.784;2022-08-18T04:26:40;20.90;98.50
55777;DHT22;54079;44.540;18.784;2022-08-18T04:29:09;21.10;98.00
55777;DHT22;54079;44.540;18.784;2022-08-18T04:31:36;21.30;97.10
55777;DHT22;54079;44.540;18.784;2022-08-18T04:34:02;21.40;96.30
55777;DHT22;54079;44.540;18.784;2022-08-18T04:36:29;21.40;96.10
55777;DHT22;54079;44.540;18.784;2022-08-18T04:38:56;21.40;95.40
55777;DHT22;54079;44.540;18.784;2022-08-18T04:41:24;21.60;95.00
55777;DHT22;54079;44.540;18.784;2022-08-18T04:43:53;21.70;95.00
55777;DHT22;54079;44.540;18.784;2022-08-18T04:46:19;21.90;94.00
55777;DHT22;54079;44.540;18.784;2022-08-18T04:48:45;21.90;94.10
55777;DHT22;54079;44.540;18.784;2022-08-18T04:51:15;22.00;93.30
55777;DHT22;54079;44.540;18.784;2022-08-18T04:53:42;22.10;92.40
55777;DHT22;54079;44.540;18.784;2022-08-18T04:59:12;22.30;92.10
55777;DHT22;54079;44.540;18.784;2022-08-18T05:01:42;22.50;90.90
55777;DHT22;54079;44.540;18.784;2022-08-18T05:04:13;22.70;90.50
55777;DHT22;54079;44.540;18.784;2022-08-18T05:06:41;22.80;89.00
55777;DHT22;54079;44.540;18.784;2022-08-18T05:09:09;22.80;89.90
55777;DHT22;54079;44.540;18.784;2022-08-18T05:11:36;22.90;88.90
55777;DHT22;54079;44.540;18.784;2022-08-18T05:14:06;23.10;87.10
55777;DHT22;54079;44.540;18.784;2022-08-18T05:16:33;23.30;86.60
55777;DHT22;54079;44.540;18.784;2022-08-18T05:19:09;23.50;85.20
55777;DHT22;54079;44.540;18.784;2022-08-18T05:21:37;23.60;83.10
55777;DHT22;54079;44.540;18.784;2022-08-18T05:24:05;23.80;82.00
55777;DHT22;54079;44.540;18.784;2022-08-18T05:26:32;24.10;80.10
55777;DHT22;54079;44.540;18.784;2022-08-18T05:28:58;24.20;78.70
55777;DHT22;54079;44.540;18.784;2022-08-18T05:31:27;24.30;77.30
55777;DHT22;54079;44.540;18.784;2022-08-18T05:33:54;24.50;77.50
55777;DHT22;54079;44.540;18.784;2022-08-18T05:39:14;24.80;75.70
55777;DHT22;54079;44.540;18.784;2022-08-18T05:42:07;24.90;75.70
55777;DHT22;54079;44.540;18.784;2022-08-18T05:44:40;25.10;73.60
55777;DHT22;54079;44.540;18.784;2022-08-18T05:47:32;25.30;72.70
55777;DHT22;54079;44.540;18.784;2022-08-18T05:50:08;25.60;72.60
55777;DHT22;54079;44.540;18.784;2022-08-18T05:52:44;25.90;73.50
55777;DHT22;54079;44.540;18.784;2022-08-18T05:55:20;28.00;68.10
55777;DHT22;54079;44.540;18.784;2022-08-18T05:58:35;30.90;62.20
55777;DHT22;54079;44.540;18.784;2022-08-18T06:01:09;33.30;56.50
55777;DHT22;54079;44.540;18.784;2022-08-18T06:03:51;34.90;53.40
55777;DHT22;54079;44.540;18.784;2022-08-18T06:06:21;36.20;51.50
55777;DHT22;54079;44.540;18.784;2022-08-18T06:09:09;36.90;50.20
55777;DHT22;54079;44.540;18.784;2022-08-18T06:11:35;37.20;49.30
55777;DHT22;54079;44.540;18.784;2022-08-18T06:14:01;38.40;48.30
55777;DHT22;54079;44.540;18.784;2022-08-18T06:17:05;39.40;46.90
55777;DHT22;54079;44.540;18.784;2022-08-18T06:25:22;41.00;43.40
55777;DHT22;54079;44.540;18.784;2022-08-18T06:28:06;41.50;43.60
55777;DHT22;54079;44.540;18.784;2022-08-18T06:30:41;42.50;42.70
55777;DHT22;54079;44.540;18.784;2022-08-18T06:36:18;43.70;41.10
55777;DHT22;54079;44.540;18.784;2022-08-18T06:41:22;44.80;40.40
55777;DHT22;54079;44.540;18.784;2022-08-18T06:46:39;45.10;39.50
55777;DHT22;54079;44.540;18.784;2022-08-18T06:49:50;45.80;38.90
55777;DHT22;54079;44.540;18.784;2022-08-18T06:52:38;46.30;38.80
55777;DHT22;54079;44.540;18.784;2022-08-18T06:55:15;46.60;37.50
55777;DHT22;54079;44.540;18.784;2022-08-18T06:57:57;47.40;37.50
55777;DHT22;54079;44.540;18.784;2022-08-18T07:00:27;48.00;36.50
55777;DHT22;54079;44.540;18.784;2022-08-18T07:03:08;48.10;36.30
55777;DHT22;54079;44.540;18.784;2022-08-18T07:05:37;48.30;36.00
55777;DHT22;54079;44.540;18.784;2022-08-18T07:08:19;48.30;36.30
55777;DHT22;54079;44.540;18.784;2022-08-18T07:10:52;48.60;35.90
55777;DHT22;54079;44.540;18.784;2022-08-18T07:13:22;49.10;36.00
55777;DHT22;54079;44.540;18.784;2022-08-18T07:15:52;49.40;35.70
55777;DHT22;54079;44.540;18.784;2022-08-18T07:18:25;49.70;36.10
55777;DHT22;54079;44.540;18.784;2022-08-18T07:20:59;49.80;35.80
55777;DHT22;54079;44.540;18.784;2022-08-18T07:23:37;49.80;35.90
55777;DHT22;54079;44.540;18.784;2022-08-18T07:26:08;50.20;35.40
55777;DHT22;54079;44.540;18.784;2022-08-18T07:28:49;50.20;35.40
55777;DHT22;54079;44.540;18.784;2022-08-18T07:31:41;50.60;35.00
55777;DHT22;54079;44.540;18.784;2022-08-18T07:34:26;50.70;35.00
55777;DHT22;54079;44.540;18.784;2022-08-18T07:37:00;50.50;34.40
55777;DHT22;54079;44.540;18.784;2022-08-18T07:39:37;50.70;34.50
55777;DHT22;54079;44.540;18.784;2022-08-18T07:47:31;51.00;34.00
55777;DHT22;54079;44.540;18.784;2022-08-18T07:50:00;51.40;33.60
55777;DHT22;54079;44.540;18.784;2022-08-18T07:52:50;51.80;34.00
55777;DHT22;54079;44.540;18.784;2022-08-18T07:55:28;51.90;33.90
55777;DHT22;54079;44.540;18.784;2022-08-18T08:06:18;52.00;33.70
55777;DHT22;54079;44.540;18.784;2022-08-18T08:09:03;52.10;33.50
55777;DHT22;54079;44.540;18.784;2022-08-18T08:12:21;52.60;33.00
55777;DHT22;54079;44.540;18.784;2022-08-18T08:20:58;53.00;32.80
55777;DHT22;54079;44.540;18.784;2022-08-18T08:26:20;52.80;32.50
55777;DHT22;54079;44.540;18.784;2022-08-18T08:31:31;53.30;31.90
55777;DHT22;54079;44.540;18.784;2022-08-18T08:34:14;53.00;32.60
55777;DHT22;54079;44.540;18.784;2022-08-18T08:36:44;53.10;32.20
55777;DHT22;54079;44.540;18.784;2022-08-18T08:42:18;53.30;31.50
55777;DHT22;54079;44.540;18.784;2022-08-18T08:45:06;53.40;30.90
55777;DHT22;54079;44.540;18.784;2022-08-18T08:50:14;52.30;31.10
55777;DHT22;54079;44.540;18.784;2022-08-18T08:52:51;52.10;31.60
55777;DHT22;54079;44.540;18.784;2022-08-18T08:55:23;52.20;31.50
55777;DHT22;54079;44.540;18.784;2022-08-18T09:00:38;52.40;31.20
55777;DHT22;54079;44.540;18.784;2022-08-18T09:06:04;51.70;31.60
55777;DHT22;54079;44.540;18.784;2022-08-18T09:08:33;51.20;32.20
55777;DHT22;54079;44.540;18.784;2022-08-18T09:11:05;50.70;32.60
55777;DHT22;54079;44.540;18.784;2022-08-18T09:17:12;47.80;33.50
55777;DHT22;54079;44.540;18.784;2022-08-18T09:20:10;45.70;34.60
55777;DHT22;54079;44.540;18.784;2022-08-18T09:22:59;44.10;35.70
55777;DHT22;54079;44.540;18.784;2022-08-18T09:31:13;41.00;37.20
55777;DHT22;54079;44.540;18.784;2022-08-18T09:38:57;39.60;40.90
55777;DHT22;54079;44.540;18.784;2022-08-18T09:49:48;38.50;40.50
55777;DHT22;54079;44.540;18.784;2022-08-18T09:57:28;38.00;42.50
55777;DHT22;54079;44.540;18.784;2022-08-18T10:08:23;37.60;42.10
55777;DHT22;54079;44.540;18.784;2022-08-18T10:13:35;37.50;43.00
55777;DHT22;54079;44.540;18.784;2022-08-18T10:16:58;37.40;42.90
55777;DHT22;54079;44.540;18.784;2022-08-18T10:20:17;37.40;43.30
55777;DHT22;54079;44.540;18.784;2022-08-18T10:22:42;37.50;42.10
55777;DHT22;54079;44.540;18.784;2022-08-18T10:25:09;37.20;40.40
55777;DHT22;54079;44.540;18.784;2022-08-18T10:33:09;37.20;40.70
55777;DHT22;54079;44.540;18.784;2022-08-18T10:38:07;36.80;40.90
55777;DHT22;54079;44.540;18.784;2022-08-18T10:40:35;36.70;42.30
55777;DHT22;54079;44.540;18.784;2022-08-18T10:45:49;36.50;42.90
55777;DHT22;54079;44.540;18.784;2022-08-18T10:48:26;36.50;42.00
55777;DHT22;54079;44.540;18.784;2022-08-18T10:56:38;36.50;40.50
55777;DHT22;54079;44.540;18.784;2022-08-18T11:04:50;36.80;40.60
55777;DHT22;54079;44.540;18.784;2022-08-18T11:07:20;36.80;39.30
55777;DHT22;54079;44.540;18.784;2022-08-18T11:09:56;36.80;39.50
55777;DHT22;54079;44.540;18.784;2022-08-18T11:15:40;36.90;37.60
55777;DHT22;54079;44.540;18.784;2022-08-18T11:19:07;37.00;37.30
55777;DHT22;54079;44.540;18.784;2022-08-18T11:21:33;36.80;37.40
55777;DHT22;54079;44.540;18.784;2022-08-18T11:24:16;36.50;38.40
55777;DHT22;54079;44.540;18.784;2022-08-18T11:27:00;36.40;39.30
55777;DHT22;54079;44.540;18.784;2022-08-18T11:29:39;36.30;39.30
55777;DHT22;54079;44.540;18.784;2022-08-18T11:32:10;36.40;38.90
55777;DHT22;54079;44.540;18.784;2022-08-18T11:40:00;36.60;38.50
55777;DHT22;54079;44.540;18.784;2022-08-18T11:42:32;36.70;39.80
55777;DHT22;54079;44.540;18.784;2022-08-18T11:45:15;36.90;39.30
55777;DHT22;54079;44.540;18.784;2022-08-18T11:48:08;36.40;39.10
55777;DHT22;54079;44.540;18.784;2022-08-18T11:50:46;36.30;39.70
55777;DHT22;54079;44.540;18.784;2022-08-18T11:53:24;36.50;39.00
55777;DHT22;54079;44.540;18.784;2022-08-18T11:56:13;36.60;40.60
55777;DHT22;54079;44.540;18.784;2022-08-18T11:58:49;36.80;39.70
55777;DHT22;54079;44.540;18.784;2022-08-18T12:09:48;37.00;38.70
55777;DHT22;54079;44.540;18.784;2022-08-18T12:12:15;37.10;38.90
55777;DHT22;54079;44.540;18.784;2022-08-18T12:14:56;37.00;38.60
55777;DHT22;54079;44.540;18.784;2022-08-18T12:17:22;37.10;39.80
55777;DHT22;54079;44.540;18.784;2022-08-18T12:19:49;37.10;39.70
55777;DHT22;54079;44.540;18.784;2022-08-18T12:22:18;37.10;38.90
55777;DHT22;54079;44.540;18.784;2022-08-18T12:24:46;37.10;37.70
55777;DHT22;54079;44.540;18.784;2022-08-18T12:27:19;37.10;39.50
55777;DHT22;54079;44.540;18.784;2022-08-18T12:29:46;37.10;38.70
55777;DHT22;54079;44.540;18.784;2022-08-18T12:32:12;37.10;38.50
55777;DHT22;54079;44.540;18.784;2022-08-18T12:34:39;37.00;38.30
55777;DHT22;54079;44.540;18.784;2022-08-18T12:37:08;37.10;36.90
55777;DHT22;54079;44.540;18.784;2022-08-18T12:39:35;36.90;39.50
55777;DHT22;54079;44.540;18.784;2022-08-18T12:42:01;36.90;37.70
55777;DHT22;54079;44.540;18.784;2022-08-18T12:44:27;36.90;37.00
55777;DHT22;54079;44.540;18.784;2022-08-18T12:46:54;36.90;37.30
55777;DHT22;54079;44.540;18.784;2022-08-18T12:49:22;36.80;36.80
55777;DHT22;54079;44.540;18.784;2022-08-18T12:51:50;36.80;38.10
55777;DHT22;54079;44.540;18.784;2022-08-18T12:54:17;36.90;37.90
55777;DHT22;54079;44.540;18.784;2022-08-18T12:56:45;37.00;38.40
55777;DHT22;54079;44.540;18.784;2022-08-18T12:59:13;37.00;37.00
55777;DHT22;54079;44.540;18.784;2022-08-18T13:01:39;37.00;36.70
55777;DHT22;54079;44.540;18.784;2022-08-18T13:04:06;37.00;37.70
55777;DHT22;54079;44.540;18.784;2022-08-18T13:06:35;37.10;38.00
55777;DHT22;54079;44.540;18.784;2022-08-18T13:09:02;37.10;36.60
55777;DHT22;54079;44.540;18.784;2022-08-18T13:11:28;37.00;35.90
55777;DHT22;54079;44.540;18.784;2022-08-18T13:13:54;36.80;36.00
55777;DHT22;54079;44.540;18.784;2022-08-18T13:16:21;36.80;37.20
55777;DHT22;54079;44.540;18.784;2022-08-18T13:18:47;36.90;36.10
55777;DHT22;54079;44.540;18.784;2022-08-18T13:21:15;37.00;36.70
55777;DHT22;54079;44.540;18.784;2022-08-18T13:23:41;37.10;37.20
55777;DHT22;54079;44.540;18.784;2022-08-18T13:26:11;37.10;37.10
55777;DHT22;54079;44.540;18.784;2022-08-18T13:28:38;37.20;37.20
55777;DHT22;54079;44.540;18.784;2022-08-18T13:31:05;37.30;37.20
55777;DHT22;54079;44.540;18.784;2022-08-18T13:33:31;37.20;37.10
55777;DHT22;54079;44.540;18.784;2022-08-18T13:35:57;37.20;37.50
55777;DHT22;54079;44.540;18.784;2022-08-18T13:38:24;37.20;36.10
55777;DHT22;54079;44.540;18.784;2022-08-18T13:40:52;37.20;37.00
55777;DHT22;54079;44.540;18.784;2022-08-18T13:43:23;37.10;36.20
55777;DHT22;54079;44.540;18.784;2022-08-18T13:45:51;37.00;35.90
55777;DHT22;54079;44.540;18.784;2022-08-18T13:48:17;37.00;36.50
55777;DHT22;54079;44.540;18.784;2022-08-18T13:50:44;37.00;35.80
55777;DHT22;54079;44.540;18.784;2022-08-18T13:53:16;36.80;35.70
55777;DHT22;54079;44.540;18.784;2022-08-18T13:55:47;36.80;35.40
55777;DHT22;54079;44.540;18.784;2022-08-18T13:58:13;36.80;36.90
55777;DHT22;54079;44.540;18.784;2022-08-18T14:00:40;36.60;35.30
55777;DHT22;54079;44.540;18.784;2022-08-18T14:03:07;36.50;35.60
55777;DHT22;54079;44.540;18.784;2022-08-18T14:05:34;36.60;36.40
55777;DHT22;54079;44.540;18.784;2022-08-18T14:08:00;36.80;37.00
55777;DHT22;54079;44.540;18.784;2022-08-18T14:10:28;36.70;35.60
55777;DHT22;54079;44.540;18.784;2022-08-18T14:12:56;36.70;35.60
55777;DHT22;54079;44.540;18.784;2022-08-18T14:15:23;36.60;35.40
55777;DHT22;54079;44.540;18.784;2022-08-18T14:17:50;36.60;36.50
55777;DHT22;54079;44.540;18.784;2022-08-18T14:20:16;36.80;37.00
55777;DHT22;54079;44.540;18.784;2022-08-18T14:23:01;36.90;36.60
55777;DHT22;54079;44.540;18.784;2022-08-18T14:25:46;36.80;35.40
55777;DHT22;54079;44.540;18.784;2022-08-18T14:28:32;36.80;35.70
55777;DHT22;54079;44.540;18.784;2022-08-18T14:31:00;36.80;36.00
55777;DHT22;54079;44.540;18.784;2022-08-18T14:33:28;36.70;36.20
55777;DHT22;54079;44.540;18.784;2022-08-18T14:35:55;36.60;36.70
55777;DHT22;54079;44.540;18.784;2022-08-18T14:38:22;36.70;36.50
55777;DHT22;54079;44.540;18.784;2022-08-18T14:41:19;36.70;36.20
55777;DHT22;54079;44.540;18.784;2022-08-18T14:43:49;36.60;35.90
55777;DHT22;54079;44.540;18.784;2022-08-18T14:46:32;36.70;36.30
55777;DHT22;54079;44.540;18.784;2022-08-18T14:49:00;36.70;35.90
55777;DHT22;54079;44.540;18.784;2022-08-18T14:51:26;36.80;35.60
55777;DHT22;54079;44.540;18.784;2022-08-18T14:53:53;36.90;36.40
55777;DHT22;54079;44.540;18.784;2022-08-18T14:56:19;36.90;35.60
55777;DHT22;54079;44.540;18.784;2022-08-18T14:58:47;36.80;36.10
55777;DHT22;54079;44.540;18.784;2022-08-18T15:01:16;36.90;35.30
55777;DHT22;54079;44.540;18.784;2022-08-18T15:03:43;36.90;35.20
55777;DHT22;54079;44.540;18.784;2022-08-18T15:06:08;36.90;36.40
55777;DHT22;54079;44.540;18.784;2022-08-18T15:08:36;36.90;36.00
55777;DHT22;54079;44.540;18.784;2022-08-18T15:11:09;36.90;35.30
55777;DHT22;54079;44.540;18.784;2022-08-18T15:13:48;36.90;36.80
55777;DHT22;54079;44.540;18.784;2022-08-18T15:16:17;36.90;36.30
55777;DHT22;54079;44.540;18.784;2022-08-18T15:18:44;36.80;36.70
55777;DHT22;54079;44.540;18.784;2022-08-18T15:21:11;36.80;36.40
55777;DHT22;54079;44.540;18.784;2022-08-18T15:23:56;36.70;36.10
55777;DHT22;54079;44.540;18.784;2022-08-18T15:26:40;36.50;36.30
55777;DHT22;54079;44.540;18.784;2022-08-18T15:29:07;36.30;36.30
55777;DHT22;54079;44.540;18.784;2022-08-18T15:31:34;36.30;36.30
55777;DHT22;54079;44.540;18.784;2022-08-18T15:34:00;36.20;39.30
55777;DHT22;54079;44.540;18.784;2022-08-18T15:36:27;36.20;40.30
55777;DHT22;54079;44.540;18.784;2022-08-18T15:38:53;36.10;39.70
55777;DHT22;54079;44.540;18.784;2022-08-18T15:43:53;36.00;40.50
55777;DHT22;54079;44.540;18.784;2022-08-18T15:46:21;36.00;41.70
55777;DHT22;54079;44.540;18.784;2022-08-18T15:48:48;35.90;42.30
55777;DHT22;54079;44.540;18.784;2022-08-18T15:51:14;35.90;42.50
55777;DHT22;54079;44.540;18.784;2022-08-18T15:53:40;35.80;43.70
55777;DHT22;54079;44.540;18.784;2022-08-18T15:56:14;35.70;44.10
55777;DHT22;54079;44.540;18.784;2022-08-18T15:58:41;35.60;44.60
55777;DHT22;54079;44.540;18.784;2022-08-18T16:01:09;35.50;44.50
55777;DHT22;54079;44.540;18.784;2022-08-18T16:03:36;35.50;44.50
55777;DHT22;54079;44.540;18.784;2022-08-18T16:06:02;35.40;43.90
55777;DHT22;54079;44.540;18.784;2022-08-18T16:08:29;35.20;44.10
55777;DHT22;54079;44.540;18.784;2022-08-18T16:10:57;35.10;45.00
55777;DHT22;54079;44.540;18.784;2022-08-18T16:13:30;35.00;45.10
55777;DHT22;54079;44.540;18.784;2022-08-18T16:15:57;34.80;44.60
55777;DHT22;54079;44.540;18.784;2022-08-18T16:18:22;34.70;44.90
55777;DHT22;54079;44.540;18.784;2022-08-18T16:20:49;34.70;44.90
55777;DHT22;54079;44.540;18.784;2022-08-18T16:23:15;34.50;45.10
55777;DHT22;54079;44.540;18.784;2022-08-18T16:25:42;34.50;45.70
55777;DHT22;54079;44.540;18.784;2022-08-18T16:28:09;34.40;45.60
55777;DHT22;54079;44.540;18.784;2022-08-18T16:30:37;34.30;46.00
55777;DHT22;54079;44.540;18.784;2022-08-18T16:33:04;34.20;46.40
55777;DHT22;54079;44.540;18.784;2022-08-18T16:35:32;34.20;46.60
55777;DHT22;54079;44.540;18.784;2022-08-18T16:38:04;34.00;46.30
55777;DHT22;54079;44.540;18.784;2022-08-18T16:40:30;33.90;46.70
55777;DHT22;54079;44.540;18.784;2022-08-18T16:42:56;33.80;48.30
55777;DHT22;54079;44.540;18.784;2022-08-18T16:45:25;33.70;47.30
55777;DHT22;54079;44.540;18.784;2022-08-18T16:47:52;33.60;47.70
55777;DHT22;54079;44.540;18.784;2022-08-18T16:50:18;33.50;47.60
55777;DHT22;54079;44.540;18.784;2022-08-18T16:52:45;33.40;47.50
55777;DHT22;54079;44.540;18.784;2022-08-18T16:55:11;33.30;47.70
55777;DHT22;54079;44.540;18.784;2022-08-18T16:57:39;33.20;49.30
55777;DHT22;54079;44.540;18.784;2022-08-18T17:00:25;33.10;48.80
55777;DHT22;54079;44.540;18.784;2022-08-18T17:03:12;32.90;48.60
55777;DHT22;54079;44.540;18.784;2022-08-18T17:06:02;32.70;49.80
55777;DHT22;54079;44.540;18.784;2022-08-18T17:08:29;32.60;48.70
55777;DHT22;54079;44.540;18.784;2022-08-18T17:11:03;32.50;49.50
55777;DHT22;54079;44.540;18.784;2022-08-18T17:13:29;32.40;49.00
55777;DHT22;54079;44.540;18.784;2022-08-18T17:15:56;32.10;49.50
55777;DHT22;54079;44.540;18.784;2022-08-18T17:18:23;32.10;49.30
55777;DHT22;54079;44.540;18.784;2022-08-18T17:20:50;32.00;48.70
55777;DHT22;54079;44.540;18.784;2022-08-18T17:23:17;31.90;49.30
55777;DHT22;54079;44.540;18.784;2022-08-18T17:25:43;31.80;49.00
55777;DHT22;54079;44.540;18.784;2022-08-18T17:28:12;31.70;49.10
55777;DHT22;54079;44.540;18.784;2022-08-18T17:30:44;31.50;49.40
55777;DHT22;54079;44.540;18.784;2022-08-18T17:33:15;31.30;50.90
55777;DHT22;54079;44.540;18.784;2022-08-18T17:35:45;31.20;49.90
55777;DHT22;54079;44.540;18.784;2022-08-18T17:38:20;31.10;50.20
55777;DHT22;54079;44.540;18.784;2022-08-18T17:40:52;31.00;50.20
55777;DHT22;54079;44.540;18.784;2022-08-18T17:43:24;30.70;50.90
55777;DHT22;54079;44.540;18.784;2022-08-18T17:51:27;30.40;52.50
55777;DHT22;54079;44.540;18.784;2022-08-18T17:54:14;30.30;53.50
55777;DHT22;54079;44.540;18.784;2022-08-18T17:56:49;30.10;52.70
55777;DHT22;54079;44.540;18.784;2022-08-18T17:59:28;29.90;51.30
55777;DHT22;54079;44.540;18.784;2022-08-18T18:02:12;29.70;53.90
55777;DHT22;54079;44.540;18.784;2022-08-18T18:04:48;29.60;54.70